sensor_id;sensor_type;location;lat;lon;timestamp;pressure;altitude;pressure_sealevel;temperature;humidity
32109;BME280;18624;50.042;8.436;2022-10-24T00:00:23;99899.38;;;13.52;100.00
32109;BME280;18624;50.042;8.436;2022-10-24T00:02:50;99901.38;;;13.51;100.00
32109;BME280;18624;50.042;8.436;2022-10-24T00:05:17;99993.59;;;13.92;100.00
32109;BME280;18624;50.042;8.436;2022-10-24T00:07:43;99911.91;;;13.34;100.00
32109;BME280;18624;50.042;8.436;2022-10-24T00:10:11;99964.06;;;13.75;100.00
32109;BME280;18624;50.042;8.436;2022-10-24T00:12:38;99820.91;;;12.83;100.00
32109;BME280;18624;50.042;8.436;2022-10-24T00:15:06;99935.94;;;13.52;100.00
32109;BME280;18624;50.042;8.436;2022-10-24T00:17:33;99979.81;;;13.83;100.00
32109;BME280;18624;50.042;8.436;2022-10-24T00:19:59;99816.47;;;12.67;100.00
32109;BME280;18624;50.042;8.436;2022-10-24T00:22:26;99899.06;;;13.22;100.00
32109;BME280;18624;50.042;8.436;2022-10-24T00:24:52;99952.28;;;13.56;100.00
32109;BME280;18624;50.042;8.436;2022-10-24T00:27:19;99917.09;;;13.32;100.00
32109;BME280;18624;50.042;8.436;2022-10-24T00:29:45;99889.53;;;13.14;100.00
32109;BME280;18624;50.042;8.436;2022-10-24T00:32:13;99959.78;;;13.55;100.00
32109;BME280;18624;50.042;8.436;2022-10-24T00:34:40;99929.47;;;13.37;100.00
32109;BME280;18624;50.042;8.436;2022-10-24T00:37:06;99888.47;;;13.02;100.00
32109;BME280;18624;50.042;8.436;2022-10-24T00:39:33;99810.16;;;12.48;100.00
32109;BME280;18624;50.042;8.436;2022-10-24T00:41:59;99971.09;;;13.48;100.00
32109;BME280;18624;50.042;8.436;2022-10-24T00:44:28;99997.09;;;13.47;100.00
32109;BME280;18624;50.042;8.436;2022-10-24T00:47:13;99857.56;;;12.80;100.00
32109;BME280;18624;50.042;8.436;2022-10-24T00:50:11;99935.44;;;13.26;100.00
32109;BME280;18624;50.042;8.436;2022-10-24T00:52:44;99842.25;;;12.60;100.00
32109;BME280;18624;50.042;8.436;2022-10-24T00:55:12;99826.19;;;12.50;100.00
32109;BME280;18624;50.042;8.436;2022-10-24T00:57:45;99975.38;;;13.49;100.00
32109;BME280;18624;50.042;8.436;2022-10-24T01:00:24;99851.72;;;12.59;100.00
32109;BME280;18624;50.042;8.436;2022-10-24T01:02:51;99970.78;;;13.37;100.00
32109;BME280;18624;50.042;8.436;2022-10-24T01:05:18;99967.72;;;13.44;100.00
32109;BME280;18624;50.042;8.436;2022-10-24T01:10:44;99955.34;;;13.30;100.00
32109;BME280;18624;50.042;8.436;2022-10-24T01:16:14;99920.28;;;13.12;100.00
32109;BME280;18624;50.042;8.436;2022-10-24T01:18:51;99856.47;;;12.59;100.00
32109;BME280;18624;50.042;8.436;2022-10-24T01:21:31;99954.09;;;13.31;100.00
32109;BME280;18624;50.042;8.436;2022-10-24T01:27:33;99953.94;;;13.26;100.00
32109;BME280;18624;50.042;8.436;2022-10-24T01:30:15;99912.91;;;13.00;100.00
32109;BME280;18624;50.042;8.436;2022-10-24T01:33:04;99817.31;;;12.36;100.00
32109;BME280;18624;50.042;8.436;2022-10-24T01:35:40;99877.25;;;12.78;100.00
32109;BME280;18624;50.042;8.436;2022-10-24T01:38:16;99896.25;;;13.04;100.00
32109;BME280;18624;50.042;8.436;2022-10-24T01:40:49;99897.00;;;12.95;100.00
32109;BME280;18624;50.042;8.436;2022-10-24T01:43:21;99928.72;;;13.27;100.00
32109;BME280;18624;50.042;8.436;2022-10-24T01:45:54;99922.56;;;13.14;100.00
32109;BME280;18624;50.042;8.436;2022-10-24T01:48:24;99885.09;;;12.89;100.00
32109;BME280;18624;50.042;8.436;2022-10-24T01:50:52;99929.66;;;13.24;100.00
32109;BME280;18624;50.042;8.436;2022-10-24T01:53:22;99877.75;;;12.86;100.00
32109;BME280;18624;50.042;8.436;2022-10-24T01:55:50;99923.97;;;13.28;100.00
32109;BME280;18624;50.042;8.436;2022-10-24T01:58:18;99776.38;;;12.29;100.00
32109;BME280;18624;50.042;8.436;2022-10-24T02:00:46;99869.97;;;12.93;100.00
32109;BME280;18624;50.042;8.436;2022-10-24T02:03:28;99907.63;;;13.24;100.00
32109;BME280;18624;50.042;8.436;2022-10-24T02:06:05;99923.53;;;13.38;100.00
32109;BME280;18624;50.042;8.436;2022-10-24T02:08:44;99894.91;;;13.17;100.00
32109;BME280;18624;50.042;8.436;2022-10-24T02:11:13;99924.16;;;13.42;100.00
32109;BME280;18624;50.042;8.436;2022-10-24T02:16:11;99885.41;;;13.09;100.00
32109;BME280;18624;50.042;8.436;2022-10-24T02:18:38;99926.59;;;13.31;100.00
32109;BME280;18624;50.042;8.436;2022-10-24T02:21:07;99929.81;;;13.39;100.00
32109;BME280;18624;50.042;8.436;2022-10-24T02:23:54;99929.81;;;13.39;100.00
32109;BME280;18624;50.042;8.436;2022-10-24T02:26:30;99877.16;;;13.00;100.00
32109;BME280;18624;50.042;8.436;2022-10-24T02:29:01;99930.72;;;13.36;100.00
32109;BME280;18624;50.042;8.436;2022-10-24T02:31:32;99936.69;;;13.34;100.00
32109;BME280;18624;50.042;8.436;2022-10-24T02:34:02;99910.19;;;13.18;100.00
32109;BME280;18624;50.042;8.436;2022-10-24T02:36:31;99660.97;;;11.61;100.00
32109;BME280;18624;50.042;8.436;2022-10-24T02:38:59;99658.22;;;11.61;100.00
32109;BME280;18624;50.042;8.436;2022-10-24T02:41:30;99891.38;;;13.17;100.00
32109;BME280;18624;50.042;8.436;2022-10-24T02:43:59;99834.78;;;12.61;100.00
32109;BME280;18624;50.042;8.436;2022-10-24T02:46:27;99916.66;;;13.25;100.00
32109;BME280;18624;50.042;8.436;2022-10-24T02:48:58;99926.09;;;13.24;100.00
32109;BME280;18624;50.042;8.436;2022-10-24T02:51:31;99906.38;;;13.16;100.00
32109;BME280;18624;50.042;8.436;2022-10-24T02:54:00;99803.41;;;12.31;100.00
32109;BME280;18624;50.042;8.436;2022-10-24T02:56:27;99826.34;;;12.55;100.00
32109;BME280;18624;50.042;8.436;2022-10-24T02:58:54;99901.16;;;13.00;100.00
32109;BME280;18624;50.042;8.436;2022-10-24T03:01:20;99914.16;;;13.08;100.00
32109;BME280;18624;50.042;8.436;2022-10-24T03:03:47;99872.88;;;12.90;100.00
32109;BME280;18624;50.042;8.436;2022-10-24T03:06:13;99716.75;;;11.89;100.00
32109;BME280;18624;50.042;8.436;2022-10-24T03:08:40;99844.13;;;12.82;100.00
32109;BME280;18624;50.042;8.436;2022-10-24T03:11:06;99656.22;;;11.53;100.00
32109;BME280;18624;50.042;8.436;2022-10-24T03:13:33;99892.28;;;13.14;100.00
32109;BME280;18624;50.042;8.436;2022-10-24T03:15:59;99909.16;;;13.25;100.00
32109;BME280;18624;50.042;8.436;2022-10-24T03:18:26;99606.72;;;11.25;100.00
32109;BME280;18624;50.042;8.436;2022-10-24T03:20:52;99914.19;;;13.27;100.00
32109;BME280;18624;50.042;8.436;2022-10-24T03:23:18;99759.13;;;12.29;100.00
32109;BME280;18624;50.042;8.436;2022-10-24T03:25:47;99767.53;;;12.34;100.00
32109;BME280;18624;50.042;8.436;2022-10-24T03:28:13;99791.81;;;12.45;100.00
32109;BME280;18624;50.042;8.436;2022-10-24T03:30:40;99903.66;;;13.34;100.00
32109;BME280;18624;50.042;8.436;2022-10-24T03:33:06;99822.25;;;12.78;100.00
32109;BME280;18624;50.042;8.436;2022-10-24T03:35:34;99885.13;;;13.07;100.00
32109;BME280;18624;50.042;8.436;2022-10-24T03:38:00;99724.47;;;11.82;100.00
32109;BME280;18624;50.042;8.436;2022-10-24T03:40:27;99920.16;;;13.25;100.00
32109;BME280;18624;50.042;8.436;2022-10-24T03:42:53;99778.22;;;12.32;100.00
32109;BME280;18624;50.042;8.436;2022-10-24T03:45:20;99912.34;;;13.24;100.00
32109;BME280;18624;50.042;8.436;2022-10-24T03:47:46;99707.44;;;11.87;100.00
32109;BME280;18624;50.042;8.436;2022-10-24T03:50:12;99926.69;;;13.18;100.00
32109;BME280;18624;50.042;8.436;2022-10-24T03:52:39;99625.16;;;11.25;100.00
32109;BME280;18624;50.042;8.436;2022-10-24T03:55:06;99777.84;;;12.03;100.00
32109;BME280;18624;50.042;8.436;2022-10-24T03:57:32;99796.41;;;12.39;100.00
32109;BME280;18624;50.042;8.436;2022-10-24T03:59:59;99841.81;;;12.71;100.00
32109;BME280;18624;50.042;8.436;2022-10-24T04:02:25;99888.47;;;13.02;100.00
32109;BME280;18624;50.042;8.436;2022-10-24T04:04:51;99799.94;;;12.49;100.00
32109;BME280;18624;50.042;8.436;2022-10-24T04:07:18;99915.56;;;13.22;100.00
32109;BME280;18624;50.042;8.436;2022-10-24T04:09:44;99727.78;;;12.08;100.00
32109;BME280;18624;50.042;8.436;2022-10-24T04:12:10;99914.81;;;13.31;100.00
32109;BME280;18624;50.042;8.436;2022-10-24T04:14:37;99741.41;;;12.11;100.00
32109;BME280;18624;50.042;8.436;2022-10-24T04:17:03;99820.59;;;12.72;100.00
32109;BME280;18624;50.042;8.436;2022-10-24T04:19:30;99903.03;;;13.30;100.00
32109;BME280;18624;50.042;8.436;2022-10-24T04:21:56;99899.53;;;13.30;100.00
32109;BME280;18624;50.042;8.436;2022-10-24T04:24:22;99905.91;;;13.17;100.00
32109;BME280;18624;50.042;8.436;2022-10-24T04:26:49;99903.50;;;13.29;100.00
32109;BME280;18624;50.042;8.436;2022-10-24T04:29:15;99773.19;;;12.31;100.00
32109;BME280;18624;50.042;8.436;2022-10-24T04:31:41;99881.41;;;13.01;100.00
32109;BME280;18624;50.042;8.436;2022-10-24T04:34:08;99941.28;;;13.37;100.00
32109;BME280;18624;50.042;8.436;2022-10-24T04:36:34;99887.84;;;12.98;100.00
32109;BME280;18624;50.042;8.436;2022-10-24T04:39:01;99934.22;;;13.36;100.00
32109;BME280;18624;50.042;8.436;2022-10-24T04:41:28;99711.41;;;11.86;100.00
32109;BME280;18624;50.042;8.436;2022-10-24T04:43:54;99875.63;;;12.99;100.00
32109;BME280;18624;50.042;8.436;2022-10-24T04:46:21;99871.78;;;12.87;100.00
32109;BME280;18624;50.042;8.436;2022-10-24T04:48:47;99953.19;;;13.34;100.00
32109;BME280;18624;50.042;8.436;2022-10-24T04:51:14;99922.59;;;13.23;100.00
32109;BME280;18624;50.042;8.436;2022-10-24T04:53:46;99774.25;;;12.33;100.00
32109;BME280;18624;50.042;8.436;2022-10-24T04:56:13;99912.97;;;13.28;100.00
32109;BME280;18624;50.042;8.436;2022-10-24T04:58:39;99900.88;;;13.16;100.00
32109;BME280;18624;50.042;8.436;2022-10-24T05:01:06;99923.69;;;13.35;100.00
32109;BME280;18624;50.042;8.436;2022-10-24T05:03:32;99836.31;;;12.71;100.00
32109;BME280;18624;50.042;8.436;2022-10-24T05:05:59;99902.84;;;13.06;100.00
32109;BME280;18624;50.042;8.436;2022-10-24T05:08:25;99782.31;;;12.19;100.00
32109;BME280;18624;50.042;8.436;2022-10-24T05:10:52;99950.13;;;13.23;100.00
32109;BME280;18624;50.042;8.436;2022-10-24T05:13:19;99923.78;;;13.13;100.00
32109;BME280;18624;50.042;8.436;2022-10-24T05:15:45;99908.47;;;12.84;100.00
32109;BME280;18624;50.042;8.436;2022-10-24T05:18:12;99848.47;;;12.52;100.00
32109;BME280;18624;50.042;8.436;2022-10-24T05:20:38;99947.31;;;13.14;100.00
32109;BME280;18624;50.042;8.436;2022-10-24T05:23:06;99954.53;;;13.11;100.00
32109;BME280;18624;50.042;8.436;2022-10-24T05:25:32;99918.25;;;12.85;100.00
32109;BME280;18624;50.042;8.436;2022-10-24T05:27:58;99867.44;;;12.50;100.00
32109;BME280;18624;50.042;8.436;2022-10-24T05:30:25;99831.81;;;12.37;100.00
32109;BME280;18624;50.042;8.436;2022-10-24T05:32:51;99706.66;;;11.46;100.00
32109;BME280;18624;50.042;8.436;2022-10-24T05:35:18;99692.25;;;11.33;100.00
32109;BME280;18624;50.042;8.436;2022-10-24T05:37:44;99914.25;;;12.86;100.00
32109;BME280;18624;50.042;8.436;2022-10-24T05:40:11;99933.84;;;12.88;100.00
32109;BME280;18624;50.042;8.436;2022-10-24T05:42:37;99935.97;;;12.84;100.00
32109;BME280;18624;50.042;8.436;2022-10-24T05:45:05;99944.41;;;12.99;100.00
32109;BME280;18624;50.042;8.436;2022-10-24T05:47:32;99848.28;;;12.37;100.00
32109;BME280;18624;50.042;8.436;2022-10-24T05:49:58;99954.63;;;12.99;100.00
32109;BME280;18624;50.042;8.436;2022-10-24T05:52:24;99919.28;;;12.79;100.00
32109;BME280;18624;50.042;8.436;2022-10-24T05:54:51;99699.59;;;11.36;100.00
32109;BME280;18624;50.042;8.436;2022-10-24T05:57:32;99956.94;;;13.09;100.00
32109;BME280;18624;50.042;8.436;2022-10-24T05:59:59;99912.25;;;12.78;100.00
32109;BME280;18624;50.042;8.436;2022-10-24T06:02:25;99887.03;;;12.61;100.00
32109;BME280;18624;50.042;8.436;2022-10-24T06:04:52;99895.22;;;12.52;100.00
32109;BME280;18624;50.042;8.436;2022-10-24T06:07:20;99967.03;;;13.03;100.00
32109;BME280;18624;50.042;8.436;2022-10-24T06:09:47;99859.09;;;12.22;100.00
32109;BME280;18624;50.042;8.436;2022-10-24T06:12:13;99753.22;;;11.59;100.00
32109;BME280;18624;50.042;8.436;2022-10-24T06:15:06;99772.34;;;11.72;100.00
32109;BME280;18624;50.042;8.436;2022-10-24T06:17:33;99961.53;;;13.03;100.00
32109;BME280;18624;50.042;8.436;2022-10-24T06:19:59;99940.25;;;12.85;100.00
32109;BME280;18624;50.042;8.436;2022-10-24T06:22:26;99908.19;;;12.51;100.00
32109;BME280;18624;50.042;8.436;2022-10-24T06:24:55;99971.50;;;12.70;100.00
32109;BME280;18624;50.042;8.436;2022-10-24T06:27:22;99966.69;;;13.01;100.00
32109;BME280;18624;50.042;8.436;2022-10-24T06:29:49;99896.88;;;12.40;100.00
32109;BME280;18624;50.042;8.436;2022-10-24T06:32:15;99903.88;;;12.41;100.00
32109;BME280;18624;50.042;8.436;2022-10-24T06:34:41;99957.75;;;12.70;100.00
32109;BME280;18624;50.042;8.436;2022-10-24T06:37:08;99868.41;;;12.25;100.00
32109;BME280;18624;50.042;8.436;2022-10-24T06:39:34;99894.13;;;12.40;100.00
32109;BME280;18624;50.042;8.436;2022-10-24T06:42:01;99979.41;;;12.99;100.00
32109;BME280;18624;50.042;8.436;2022-10-24T06:44:29;99756.06;;;11.24;100.00
32109;BME280;18624;50.042;8.436;2022-10-24T06:46:56;99943.69;;;12.67;100.00
32109;BME280;18624;50.042;8.436;2022-10-24T06:49:22;99953.16;;;12.66;100.00
32109;BME280;18624;50.042;8.436;2022-10-24T06:51:48;99986.41;;;12.90;100.00
32109;BME280;18624;50.042;8.436;2022-10-24T06:54:15;99930.69;;;12.59;100.00
32109;BME280;18624;50.042;8.436;2022-10-24T06:56:42;99950.38;;;12.57;100.00
32109;BME280;18624;50.042;8.436;2022-10-24T06:59:10;99946.56;;;12.55;100.00
32109;BME280;18624;50.042;8.436;2022-10-24T07:01:41;99515.66;;;9.58;100.00
32109;BME280;18624;50.042;8.436;2022-10-24T07:04:18;99997.88;;;12.98;100.00
32109;BME280;18624;50.042;8.436;2022-10-24T07:07:00;99683.38;;;10.98;100.00
32109;BME280;18624;50.042;8.436;2022-10-24T07:09:26;99901.75;;;12.36;100.00
32109;BME280;18624;50.042;8.436;2022-10-24T07:11:54;99594.50;;;10.33;100.00
32109;BME280;18624;50.042;8.436;2022-10-24T07:14:20;99982.63;;;12.97;100.00
32109;BME280;18624;50.042;8.436;2022-10-24T07:16:50;99696.59;;;11.21;100.00
32109;BME280;18624;50.042;8.436;2022-10-24T07:19:17;99976.66;;;13.08;100.00
32109;BME280;18624;50.042;8.436;2022-10-24T07:21:43;99844.56;;;12.12;100.00
32109;BME280;18624;50.042;8.436;2022-10-24T07:24:11;99851.44;;;12.17;100.00
32109;BME280;18624;50.042;8.436;2022-10-24T07:26:39;99569.31;;;10.47;100.00
32109;BME280;18624;50.042;8.436;2022-10-24T07:29:05;99569.19;;;10.51;100.00
32109;BME280;18624;50.042;8.436;2022-10-24T07:31:33;99932.00;;;12.85;100.00
32109;BME280;18624;50.042;8.436;2022-10-24T07:34:05;99810.78;;;12.03;100.00
32109;BME280;18624;50.042;8.436;2022-10-24T07:36:34;99998.63;;;13.39;100.00
32109;BME280;18624;50.042;8.436;2022-10-24T07:39:05;99944.69;;;13.01;100.00
32109;BME280;18624;50.042;8.436;2022-10-24T07:41:32;99982.50;;;13.19;100.00
32109;BME280;18624;50.042;8.436;2022-10-24T07:43:59;99946.66;;;12.91;100.00
32109;BME280;18624;50.042;8.436;2022-10-24T07:46:28;99983.13;;;13.23;100.00
32109;BME280;18624;50.042;8.436;2022-10-24T07:48:55;99960.47;;;13.10;100.00
32109;BME280;18624;50.042;8.436;2022-10-24T07:51:21;99813.25;;;12.10;100.00
32109;BME280;18624;50.042;8.436;2022-10-24T07:53:48;99914.56;;;12.79;100.00
32109;BME280;18624;50.042;8.436;2022-10-24T07:56:16;100006.28;;;13.44;100.00
32109;BME280;18624;50.042;8.436;2022-10-24T07:58:43;99964.34;;;13.31;100.00
32109;BME280;18624;50.042;8.436;2022-10-24T08:01:13;99874.81;;;12.71;100.00
32109;BME280;18624;50.042;8.436;2022-10-24T08:03:40;100036.59;;;13.72;100.00
32109;BME280;18624;50.042;8.436;2022-10-24T08:06:13;99861.94;;;12.59;100.00
32109;BME280;18624;50.042;8.436;2022-10-24T08:08:41;99970.78;;;13.37;100.00
32109;BME280;18624;50.042;8.436;2022-10-24T08:11:16;100013.94;;;13.77;100.00
32109;BME280;18624;50.042;8.436;2022-10-24T08:18:43;99511.16;;;10.43;100.00
32109;BME280;18624;50.042;8.436;2022-10-24T08:21:11;99578.13;;;10.95;100.00
32109;BME280;18624;50.042;8.436;2022-10-24T08:23:57;99486.00;;;10.35;100.00
32109;BME280;18624;50.042;8.436;2022-10-24T08:29:54;99674.91;;;11.76;100.00
32109;BME280;18624;50.042;8.436;2022-10-24T08:32:30;99981.03;;;13.91;100.00
32109;BME280;18624;50.042;8.436;2022-10-24T08:35:59;99829.00;;;12.96;100.00
32109;BME280;18624;50.042;8.436;2022-10-24T08:38:40;99492.09;;;10.71;100.00
32109;BME280;18624;50.042;8.436;2022-10-24T08:41:38;99995.84;;;14.12;100.00
32109;BME280;18624;50.042;8.436;2022-10-24T08:44:15;99994.78;;;14.19;100.00
32109;BME280;18624;50.042;8.436;2022-10-24T08:46:56;99987.69;;;14.27;100.00
32109;BME280;18624;50.042;8.436;2022-10-24T08:49:45;99973.31;;;14.32;100.00
32109;BME280;18624;50.042;8.436;2022-10-24T08:54:52;99981.84;;;14.43;100.00
32109;BME280;18624;50.042;8.436;2022-10-24T08:57:22;99991.34;;;14.52;100.00
32109;BME280;18624;50.042;8.436;2022-10-24T08:59:52;99996.22;;;14.57;100.00
32109;BME280;18624;50.042;8.436;2022-10-24T09:02:25;99975.56;;;14.43;100.00
32109;BME280;18624;50.042;8.436;2022-10-24T09:04:56;99999.44;;;14.64;100.00
32109;BME280;18624;50.042;8.436;2022-10-24T09:07:24;99993.28;;;14.69;100.00
32109;BME280;18624;50.042;8.436;2022-10-24T09:10:06;99993.56;;;14.72;100.00
32109;BME280;18624;50.042;8.436;2022-10-24T09:12:36;99997.88;;;14.73;100.00
32109;BME280;18624;50.042;8.436;2022-10-24T09:15:14;99989.59;;;14.73;100.00
32109;BME280;18624;50.042;8.436;2022-10-24T09:17:41;100003.19;;;14.76;100.00
32109;BME280;18624;50.042;8.436;2022-10-24T09:20:28;99993.25;;;14.79;100.00
32109;BME280;18624;50.042;8.436;2022-10-24T09:23:01;99989.06;;;14.83;100.00
32109;BME280;18624;50.042;8.436;2022-10-24T09:25:34;99940.75;;;14.64;100.00
32109;BME280;18624;50.042;8.436;2022-10-24T09:28:05;99975.84;;;14.97;100.00
32109;BME280;18624;50.042;8.436;2022-10-24T09:30:32;99973.66;;;15.01;100.00
32109;BME280;18624;50.042;8.436;2022-10-24T09:33:09;99986.66;;;15.09;100.00
32109;BME280;18624;50.042;8.436;2022-10-24T09:35:38;99979.56;;;15.17;100.00
32109;BME280;18624;50.042;8.436;2022-10-24T09:38:25;99987.94;;;15.23;100.00
32109;BME280;18624;50.042;8.436;2022-10-24T09:40:54;99990.81;;;15.29;100.00
32109;BME280;18624;50.042;8.436;2022-10-24T09:43:36;99985.88;;;15.33;100.00
32109;BME280;18624;50.042;8.436;2022-10-24T09:46:09;99987.66;;;15.45;100.00
32109;BME280;18624;50.042;8.436;2022-10-24T09:51:23;99983.84;;;15.57;100.00
32109;BME280;18624;50.042;8.436;2022-10-24T09:54:02;99988.41;;;15.69;100.00
32109;BME280;18624;50.042;8.436;2022-10-24T09:56:53;99953.09;;;15.50;100.00
32109;BME280;18624;50.042;8.436;2022-10-24T09:59:57;99997.19;;;15.83;100.00
32109;BME280;18624;50.042;8.436;2022-10-24T10:02:33;99994.53;;;15.88;100.00
32109;BME280;18624;50.042;8.436;2022-10-24T10:07:35;100003.03;;;16.00;100.00
32109;BME280;18624;50.042;8.436;2022-10-24T10:12:46;100010.59;;;16.14;100.00
32109;BME280;18624;50.042;8.436;2022-10-24T10:15:33;99971.66;;;16.03;100.00
32109;BME280;18624;50.042;8.436;2022-10-24T10:18:22;99991.31;;;16.19;100.00
32109;BME280;18624;50.042;8.436;2022-10-24T10:21:03;100012.97;;;16.36;100.00
32109;BME280;18624;50.042;8.436;2022-10-24T10:23:39;100018.31;;;16.39;100.00
32109;BME280;18624;50.042;8.436;2022-10-24T10:28:52;100013.16;;;16.47;100.00
32109;BME280;18624;50.042;8.436;2022-10-24T10:31:22;100012.28;;;16.56;100.00
32109;BME280;18624;50.042;8.436;2022-10-24T10:34:08;100010.41;;;16.62;100.00
32109;BME280;18624;50.042;8.436;2022-10-24T10:42:48;100017.94;;;16.76;100.00
32109;BME280;18624;50.042;8.436;2022-10-24T10:48:03;100025.16;;;16.88;100.00
32109;BME280;18624;50.042;8.436;2022-10-24T10:50:38;99993.78;;;16.77;100.00
32109;BME280;18624;50.042;8.436;2022-10-24T10:53:10;100017.28;;;17.02;100.00
32109;BME280;18624;50.042;8.436;2022-10-24T10:56:13;100018.41;;;17.10;100.00
32109;BME280;18624;50.042;8.436;2022-10-24T11:01:31;100020.59;;;17.20;100.00
32109;BME280;18624;50.042;8.436;2022-10-24T11:07:27;100018.38;;;17.45;100.00
32109;BME280;18624;50.042;8.436;2022-10-24T11:09:58;100000.38;;;17.35;100.00
32109;BME280;18624;50.042;8.436;2022-10-24T11:12:36;100000.44;;;17.40;100.00
32109;BME280;18624;50.042;8.436;2022-10-24T11:15:20;100024.47;;;17.49;100.00
32109;BME280;18624;50.042;8.436;2022-10-24T11:20:26;100012.28;;;17.41;100.00
32109;BME280;18624;50.042;8.436;2022-10-24T11:23:04;100034.94;;;17.39;100.00
32109;BME280;18624;50.042;8.436;2022-10-24T11:25:40;100029.88;;;17.38;100.00
32109;BME280;18624;50.042;8.436;2022-10-24T11:28:17;100023.78;;;17.34;100.00
32109;BME280;18624;50.042;8.436;2022-10-24T11:33:24;100036.47;;;17.40;100.00
32109;BME280;18624;50.042;8.436;2022-10-24T11:36:15;100033.84;;;17.52;100.00
32109;BME280;18624;50.042;8.436;2022-10-24T11:39:17;100027.66;;;17.62;100.00
32109;BME280;18624;50.042;8.436;2022-10-24T11:41:52;100039.72;;;17.59;100.00
32109;BME280;18624;50.042;8.436;2022-10-24T11:44:46;99972.25;;;17.21;99.38
32109;BME280;18624;50.042;8.436;2022-10-24T11:47:37;100033.63;;;17.55;96.46
32109;BME280;18624;50.042;8.436;2022-10-24T11:55:58;99952.38;;;17.23;93.60
32109;BME280;18624;50.042;8.436;2022-10-24T11:58:30;100019.72;;;17.70;94.46
32109;BME280;18624;50.042;8.436;2022-10-24T12:15:44;100009.94;;;18.21;91.47
32109;BME280;18624;50.042;8.436;2022-10-24T12:18:29;100011.44;;;18.22;87.97
32109;BME280;18624;50.042;8.436;2022-10-24T12:21:02;100016.50;;;18.23;87.90
32109;BME280;18624;50.042;8.436;2022-10-24T12:23:30;100006.19;;;18.24;86.85
32109;BME280;18624;50.042;8.436;2022-10-24T12:28:31;100012.31;;;18.34;87.54
32109;BME280;18624;50.042;8.436;2022-10-24T12:33:41;100009.31;;;18.37;88.50
32109;BME280;18624;50.042;8.436;2022-10-24T12:36:09;100015.34;;;18.36;91.21
32109;BME280;18624;50.042;8.436;2022-10-24T12:41:35;100021.34;;;18.29;90.43
32109;BME280;18624;50.042;8.436;2022-10-24T12:44:24;100019.88;;;18.33;90.54
32109;BME280;18624;50.042;8.436;2022-10-24T12:47:23;100012.03;;;18.32;91.34
32109;BME280;18624;50.042;8.436;2022-10-24T12:49:50;99985.69;;;18.16;88.87
32109;BME280;18624;50.042;8.436;2022-10-24T12:57:54;99998.69;;;18.36;85.35
32109;BME280;18624;50.042;8.436;2022-10-24T13:00:24;99992.41;;;18.35;81.73
32109;BME280;18624;50.042;8.436;2022-10-24T13:03:04;99999.47;;;18.36;84.85
32109;BME280;18624;50.042;8.436;2022-10-24T13:08:46;99993.06;;;18.25;81.10
32109;BME280;18624;50.042;8.436;2022-10-24T13:11:39;99923.03;;;17.78;80.44
32109;BME280;18624;50.042;8.436;2022-10-24T13:14:15;99990.88;;;18.08;80.54
32109;BME280;18624;50.042;8.436;2022-10-24T13:19:25;99989.78;;;18.00;83.02
32109;BME280;18624;50.042;8.436;2022-10-24T13:21:54;99994.31;;;17.98;81.30
32109;BME280;18624;50.042;8.436;2022-10-24T13:37:29;100008.72;;;17.76;85.64
32109;BME280;18624;50.042;8.436;2022-10-24T13:40:06;100011.94;;;17.74;85.44
32109;BME280;18624;50.042;8.436;2022-10-24T13:42:42;100003.84;;;17.70;86.47
32109;BME280;18624;50.042;8.436;2022-10-24T13:45:35;100005.34;;;17.71;86.80
32109;BME280;18624;50.042;8.436;2022-10-24T13:48:08;100005.34;;;17.71;86.10
32109;BME280;18624;50.042;8.436;2022-10-24T13:50:47;99998.22;;;17.65;86.63
32109;BME280;18624;50.042;8.436;2022-10-24T13:53:23;100000.31;;;17.70;86.26
32109;BME280;18624;50.042;8.436;2022-10-24T13:56:00;99971.84;;;17.49;86.92
32109;BME280;18624;50.042;8.436;2022-10-24T13:58:36;99999.06;;;17.71;86.45
32109;BME280;18624;50.042;8.436;2022-10-24T14:01:21;100001.81;;;17.71;87.23
32109;BME280;18624;50.042;8.436;2022-10-24T14:03:52;99998.28;;;17.70;88.31
32109;BME280;18624;50.042;8.436;2022-10-24T14:06:28;99998.75;;;17.69;88.98
32109;BME280;18624;50.042;8.436;2022-10-24T14:08:59;100017.91;;;17.67;88.13
32109;BME280;18624;50.042;8.436;2022-10-24T14:11:33;100004.53;;;17.65;88.49
32109;BME280;18624;50.042;8.436;2022-10-24T14:14:05;100013.31;;;17.64;89.09
32109;BME280;18624;50.042;8.436;2022-10-24T14:16:38;100011.53;;;17.61;90.37
32109;BME280;18624;50.042;8.436;2022-10-24T14:21:45;100014.72;;;17.54;92.20
32109;BME280;18624;50.042;8.436;2022-10-24T14:24:14;100014.91;;;17.50;91.59
32109;BME280;18624;50.042;8.436;2022-10-24T14:26:41;100021.22;;;17.51;90.73
32109;BME280;18624;50.042;8.436;2022-10-24T14:29:20;100015.69;;;17.51;89.77
32109;BME280;18624;50.042;8.436;2022-10-24T14:32:04;100015.22;;;17.52;91.64
32109;BME280;18624;50.042;8.436;2022-10-24T14:34:34;100024.84;;;17.57;89.68
32109;BME280;18624;50.042;8.436;2022-10-24T14:37:04;99997.81;;;17.52;91.12
32109;BME280;18624;50.042;8.436;2022-10-24T14:39:31;100009.28;;;17.65;86.10
32109;BME280;18624;50.042;8.436;2022-10-24T14:42:00;100018.16;;;17.69;86.96
32109;BME280;18624;50.042;8.436;2022-10-24T14:44:28;100018.16;;;17.69;86.63
32109;BME280;18624;50.042;8.436;2022-10-24T14:47:20;100014.44;;;17.72;84.88
32109;BME280;18624;50.042;8.436;2022-10-24T14:49:47;100004.75;;;17.62;85.32
32109;BME280;18624;50.042;8.436;2022-10-24T14:52:22;100011.84;;;17.68;83.43
32109;BME280;18624;50.042;8.436;2022-10-24T14:54:55;100020.25;;;17.74;82.48
32109;BME280;18624;50.042;8.436;2022-10-24T14:57:25;100027.81;;;17.74;83.34
32109;BME280;18624;50.042;8.436;2022-10-24T14:59:54;100022.75;;;17.72;84.13
32109;BME280;18624;50.042;8.436;2022-10-24T15:02:28;100033.06;;;17.71;83.52